Time;durP1;ratioP1;P1;durP2;ratioP2;P2;SDS_P1;SDS_P2;PMS_P1;PMS_P2;Temp;Humidity;BMP_temperature;BMP_pressure;BME280_temperature;BME280_humidity;BME280_pressure;Samples;Min_cycle;Max_cycle;Signal;HPM_P1;HPM_P2
2022/01/06 00:02:31;;;;;;;23.17;12.35;;;;;;;;;;6265495;28;20139;-66
2022/01/06 00:05:33;;;;;;;19.33;8.80;;;;;;;;;;6261387;28;20045;-66
2022/01/06 00:08:37;;;;;;;18.95;7.43;;;;;;;;;;6268692;28;20132;-66
2022/01/06 00:11:38;;;;;;;66.93;35.53;;;;;;;;;;6262001;28;20521;-66
2022/01/06 00:14:55;;;;;;;46.25;24.23;;;;;;;;;;6260734;28;20049;-66
2022/01/06 00:24:50;;;;;;;6.20;3.28;;;;;;;;;;6209754;28;20057;-64
2022/01/06 00:27:51;;;;;;;7.18;3.95;;;;;;;;;;6257405;28;20083;-65
2022/01/06 00:30:53;;;;;;;10.93;6.22;;;;;;;;;;6263957;28;20171;-65
2022/01/06 00:33:56;;;;;;;12.07;7.45;;;;;;;;;;6260003;28;20143;-65
2022/01/06 00:36:57;;;;;;;12.70;7.15;;;;;;;;;;6254035;28;20139;-73
2022/01/06 00:39:59;;;;;;;15.73;8.85;;;;;;;;;;6255482;28;20128;-67
2022/01/06 00:43:02;;;;;;;17.35;11.13;;;;;;;;;;6255521;28;20072;-67
2022/01/06 00:46:03;;;;;;;21.83;13.05;;;;;;;;;;6255528;28;20052;-67
2022/01/06 00:49:06;;;;;;;18.63;11.45;;;;;;;;;;6250162;28;20532;-66
2022/01/06 00:52:08;;;;;;;18.05;10.10;;;;;;;;;;6257689;28;20073;-66
2022/01/06 00:55:10;;;;;;;14.38;8.45;;;;;;;;;;6257160;28;20098;-67
2022/01/06 00:58:11;;;;;;;16.48;9.32;;;;;;;;;;6265535;28;20131;-65
2022/01/06 01:01:13;;;;;;;15.95;8.75;;;;;;;;;;6265024;28;20049;-65
2022/01/06 01:04:16;;;;;;;14.38;8.68;;;;;;;;;;6257402;28;20190;-66
2022/01/06 01:07:17;;;;;;;17.67;9.90;;;;;;;;;;6255892;28;20037;-65
2022/01/06 01:10:19;;;;;;;19.58;9.88;;;;;;;;;;6256249;28;20179;-66
2022/01/06 01:13:27;;;;;;;15.32;9.57;;;;;;;;;;6252911;28;20136;-65
2022/01/06 01:16:32;;;;;;;17.70;8.50;;;;;;;;;;6252626;28;20052;-64
2022/01/06 01:19:34;;;;;;;;;;;;;;;;;;6257844;28;20045;-66
2022/01/06 01:22:36;;;;;;;15.27;8.93;;;;;;;;;;6252215;28;19925;-65
2022/01/06 01:25:37;;;;;;;16.73;8.98;;;;;;;;;;6259605;28;20049;-66
2022/01/06 01:28:44;;;;;;;13.55;7.60;;;;;;;;;;6255169;28;20125;-66
2022/01/06 01:31:49;;;;;;;14.98;8.98;;;;;;;;;;6254233;28;20068;-66
2022/01/06 01:34:59;;;;;;;17.02;8.98;;;;;;;;;;6257021;28;20122;-66
2022/01/06 01:38:00;;;;;;;19.15;9.88;;;;;;;;;;6254723;28;20575;-65
2022/01/06 01:41:02;;;;;;;18.30;10.75;;;;;;;;;;6254767;28;20617;-65
2022/01/06 01:44:11;;;;;;;17.80;10.95;;;;;;;;;;6252705;28;20536;-65
2022/01/06 01:47:13;;;;;;;19.65;10.98;;;;;;;;;;6255266;28;20164;-66
2022/01/06 01:50:20;;;;;;;19.65;11.13;;;;;;;;;;6252788;28;20045;-66
2022/01/06 01:53:22;;;;;;;20.13;11.13;;;;;;;;;;6254419;28;20103;-66
2022/01/06 01:56:24;;;;;;;22.27;11.57;;;;;;;;;;6258539;28;20080;-65
2022/01/06 01:59:25;;;;;;;90.82;41.80;;;;;;;;;;6263639;28;20071;-66
2022/01/06 02:02:28;;;;;;;77.40;36.15;;;;;;;;;;6258836;28;20537;-65
2022/01/06 02:05:31;;;;;;;44.17;22.48;;;;;;;;;;6256529;28;20045;-65
2022/01/06 02:08:32;;;;;;;34.83;18.77;;;;;;;;;;6257801;28;20481;-65
2022/01/06 02:11:34;;;;;;;32.42;16.73;;;;;;;;;;6256320;28;20053;-65
2022/01/06 02:14:37;;;;;;;45.47;22.50;;;;;;;;;;6255980;28;20172;-65
2022/01/06 02:17:39;;;;;;;15.60;8.23;;;;;;;;;;6255456;28;20060;-65
2022/01/06 02:20:42;;;;;;;14.88;7.22;;;;;;;;;;6266937;28;20119;-65
2022/01/06 02:23:44;;;;;;;11.25;6.65;;;;;;;;;;6257690;28;20127;-65
2022/01/06 02:26:46;;;;;;;11.98;6.45;;;;;;;;;;6258394;28;20123;-64
2022/01/06 02:29:48;;;;;;;9.63;4.93;;;;;;;;;;6251125;28;20096;-64
2022/01/06 02:32:50;;;;;;;8.30;5.03;;;;;;;;;;6254359;28;20048;-64
2022/01/06 02:35:54;;;;;;;8.10;4.70;;;;;;;;;;6254991;28;20044;-64
2022/01/06 02:38:55;;;;;;;8.25;4.65;;;;;;;;;;6259720;28;20140;-64
2022/01/06 02:41:57;;;;;;;9.00;5.53;;;;;;;;;;6258685;28;20116;-64
2022/01/06 02:44:58;;;;;;;10.73;5.45;;;;;;;;;;6262672;28;20136;-64
2022/01/06 02:48:08;;;;;;;7.65;4.38;;;;;;;;;;6255241;28;20084;-64
2022/01/06 02:51:11;;;;;;;7.43;4.25;;;;;;;;;;6254299;28;20507;-64
2022/01/06 02:54:13;;;;;;;7.10;4.78;;;;;;;;;;6253450;28;20169;-64
2022/01/06 02:57:15;;;;;;;7.50;4.93;;;;;;;;;;6256783;28;20620;-64
2022/01/06 03:00:18;;;;;;;6.93;4.38;;;;;;;;;;6256928;28;20128;-64
2022/01/06 03:03:20;;;;;;;7.05;4.38;;;;;;;;;;6254069;28;20135;-64
2022/01/06 03:06:24;;;;;;;11.10;4.75;;;;;;;;;;6254365;28;20052;-64
2022/01/06 03:09:36;;;;;;;9.02;5.35;;;;;;;;;;6254166;28;20176;-64
2022/01/06 03:12:40;;;;;;;9.75;5.78;;;;;;;;;;6255319;28;20052;-64
2022/01/06 03:15:41;;;;;;;9.90;5.25;;;;;;;;;;6252103;28;20482;-64
2022/01/06 03:18:43;;;;;;;9.88;5.57;;;;;;;;;;6255642;28;20045;-64
2022/01/06 03:21:46;;;;;;;8.52;5.28;;;;;;;;;;6255258;28;20122;-64
2022/01/06 03:24:47;;;;;;;8.27;4.95;;;;;;;;;;6266258;28;20457;-64
2022/01/06 03:27:49;;;;;;;9.30;5.22;;;;;;;;;;6269971;28;20492;-64
2022/01/06 03:30:51;;;;;;;7.47;5.10;;;;;;;;;;6264194;28;20053;-64
2022/01/06 03:33:52;;;;;;;6.53;4.60;;;;;;;;;;6263218;28;20266;-64
2022/01/06 03:36:55;;;;;;;6.72;4.40;;;;;;;;;;6264736;28;20087;-64
2022/01/06 03:39:57;;;;;;;6.63;4.30;;;;;;;;;;6265541;28;20515;-64
2022/01/06 03:42:58;;;;;;;6.28;4.07;;;;;;;;;;6270885;28;20118;-65
2022/01/06 03:46:00;;;;;;;5.50;3.83;;;;;;;;;;6264114;28;20062;-64
2022/01/06 03:49:01;;;;;;;6.63;3.95;;;;;;;;;;6269072;28;20401;-64
2022/01/06 03:52:05;;;;;;;6.45;3.70;;;;;;;;;;6266620;28;20123;-64
2022/01/06 03:55:09;;;;;;;6.10;3.65;;;;;;;;;;6263021;28;20088;-65
2022/01/06 03:58:11;;;;;;;6.35;3.85;;;;;;;;;;6265920;28;20548;-64
2022/01/06 04:01:12;;;;;;;5.53;3.70;;;;;;;;;;6258299;28;20106;-64
2022/01/06 04:04:15;;;;;;;6.82;4.00;;;;;;;;;;6253827;28;20045;-64
2022/01/06 04:07:17;;;;;;;6.75;4.03;;;;;;;;;;6258907;28;20119;-65
2022/01/06 04:10:19;;;;;;;7.07;3.88;;;;;;;;;;6255276;28;20045;-64
2022/01/06 04:13:21;;;;;;;8.50;3.90;;;;;;;;;;6255054;28;20147;-65
2022/01/06 04:16:24;;;;;;;6.30;3.67;;;;;;;;;;6263447;28;20049;-64
2022/01/06 04:19:26;;;;;;;6.13;3.92;;;;;;;;;;6259919;28;20059;-64
2022/01/06 04:22:29;;;;;;;6.43;3.92;;;;;;;;;;6255658;28;20053;-64
2022/01/06 04:25:30;;;;;;;4.80;3.10;;;;;;;;;;6257291;28;20139;-64
2022/01/06 04:28:32;;;;;;;6.30;3.25;;;;;;;;;;6252790;28;20072;-64
2022/01/06 04:31:33;;;;;;;6.22;3.63;;;;;;;;;;6253588;28;20128;-64
2022/01/06 04:34:35;;;;;;;4.60;2.55;;;;;;;;;;6253356;28;20052;-64
2022/01/06 04:37:38;;;;;;;3.45;2.33;;;;;;;;;;6258099;28;20617;-64
2022/01/06 04:40:40;;;;;;;3.70;2.47;;;;;;;;;;6259826;28;20079;-64
2022/01/06 04:43:42;;;;;;;4.47;2.60;;;;;;;;;;6261915;28;20146;-65
2022/01/06 04:46:43;;;;;;;3.88;2.25;;;;;;;;;;6254374;28;20053;-64
2022/01/06 04:49:45;;;;;;;2.65;1.73;;;;;;;;;;6258799;28;20132;-64
2022/01/06 04:52:48;;;;;;;3.13;2.10;;;;;;;;;;6260619;28;20090;-64
2022/01/06 04:55:51;;;;;;;3.92;1.80;;;;;;;;;;6251040;28;20124;-64
2022/01/06 04:58:52;;;;;;;1.95;1.48;;;;;;;;;;6256029;28;20513;-65
2022/01/06 05:01:54;;;;;;;2.10;1.67;;;;;;;;;;6261366;28;20130;-65
2022/01/06 05:04:55;;;;;;;2.55;1.30;;;;;;;;;;6262736;28;20135;-64
2022/01/06 05:07:58;;;;;;;3.08;1.40;;;;;;;;;;6264175;28;20124;-64
2022/01/06 05:11:00;;;;;;;1.98;1.40;;;;;;;;;;6259434;28;20091;-64
2022/01/06 05:14:01;;;;;;;2.55;1.38;;;;;;;;;;6261564;28;20638;-64
2022/01/06 05:17:03;;;;;;;2.22;1.33;;;;;;;;;;6259785;28;20523;-65
2022/01/06 05:20:06;;;;;;;2.05;1.42;;;;;;;;;;6255281;28;20549;-64
2022/01/06 05:23:10;;;;;;;2.35;1.30;;;;;;;;;;6254621;28;20261;-64
2022/01/06 05:26:12;;;;;;;2.65;1.95;;;;;;;;;;6254961;28;20048;-64
2022/01/06 05:29:14;;;;;;;1.75;1.33;;;;;;;;;;6249368;28;20045;-64
2022/01/06 05:32:15;;;;;;;1.92;1.40;;;;;;;;;;6258105;28;20061;-64
2022/01/06 05:35:17;;;;;;;3.30;1.70;;;;;;;;;;6254505;28;20136;-64
2022/01/06 05:38:20;;;;;;;1.90;1.40;;;;;;;;;;6258822;28;20541;-65
2022/01/06 05:41:22;;;;;;;2.80;1.90;;;;;;;;;;6254190;28;20170;-64
2022/01/06 05:44:25;;;;;;;6.28;1.70;;;;;;;;;;6254835;28;20405;-64
2022/01/06 05:47:27;;;;;;;1.98;1.75;;;;;;;;;;6255376;28;20132;-64
2022/01/06 05:50:28;;;;;;;1.85;1.65;;;;;;;;;;6250626;28;20179;-64
2022/01/06 05:53:31;;;;;;;3.45;1.83;;;;;;;;;;6258718;28;20172;-64
2022/01/06 05:56:33;;;;;;;3.53;1.60;;;;;;;;;;6251813;28;20046;-64
2022/01/06 05:59:35;;;;;;;1.77;1.55;;;;;;;;;;6256998;28;20150;-64
2022/01/06 06:02:36;;;;;;;1.73;1.42;;;;;;;;;;6254271;28;20098;-64
2022/01/06 06:05:40;;;;;;;1.85;1.60;;;;;;;;;;6257177;28;20192;-64
2022/01/06 06:08:43;;;;;;;3.72;1.80;;;;;;;;;;6257115;28;20106;-64
2022/01/06 06:11:45;;;;;;;3.50;1.80;;;;;;;;;;6254080;28;20218;-64
2022/01/06 06:14:47;;;;;;;2.45;1.90;;;;;;;;;;6257361;28;20501;-64
2022/01/06 06:17:49;;;;;;;3.35;1.73;;;;;;;;;;6262298;28;20143;-64
2022/01/06 06:20:52;;;;;;;2.38;1.90;;;;;;;;;;6255101;28;20417;-64
2022/01/06 06:23:55;;;;;;;2.47;1.92;;;;;;;;;;6255900;28;20199;-64
2022/01/06 06:26:57;;;;;;;2.05;1.52;;;;;;;;;;6255534;28;20107;-64
2022/01/06 06:29:58;;;;;;;3.45;2.03;;;;;;;;;;6252507;28;20121;-64
2022/01/06 06:33:01;;;;;;;2.90;1.75;;;;;;;;;;6257089;28;20188;-65
2022/01/06 06:36:03;;;;;;;2.55;2.15;;;;;;;;;;6257899;28;20049;-64
2022/01/06 06:39:06;;;;;;;2.42;1.98;;;;;;;;;;6257561;28;20515;-64
2022/01/06 06:42:08;;;;;;;2.50;1.93;;;;;;;;;;6257035;28;20136;-64
2022/01/06 06:45:11;;;;;;;3.97;1.60;;;;;;;;;;6252804;28;20124;-64
2022/01/06 06:48:13;;;;;;;2.85;1.92;;;;;;;;;;6251917;28;20084;-64
2022/01/06 06:51:14;;;;;;;3.60;2.20;;;;;;;;;;6256721;28;20386;-64
2022/01/06 06:54:17;;;;;;;2.95;2.35;;;;;;;;;;6255377;28;20078;-64
2022/01/06 06:57:19;;;;;;;3.15;2.28;;;;;;;;;;6252600;28;20069;-64
2022/01/06 07:00:21;;;;;;;2.03;1.83;;;;;;;;;;6258860;28;20135;-64
2022/01/06 07:03:22;;;;;;;2.97;2.03;;;;;;;;;;6251328;28;20041;-64
2022/01/06 07:06:24;;;;;;;3.13;2.10;;;;;;;;;;6254277;28;20183;-63
2022/01/06 07:09:27;;;;;;;2.67;1.88;;;;;;;;;;6258292;28;20524;-64
2022/01/06 07:12:30;;;;;;;3.20;2.20;;;;;;;;;;6257443;28;20128;-64
2022/01/06 07:15:33;;;;;;;3.15;2.20;;;;;;;;;;6256724;28;20481;-64
2022/01/06 07:18:35;;;;;;;2.85;2.08;;;;;;;;;;6253520;28;20050;-64
2022/01/06 07:21:36;;;;;;;3.97;2.30;;;;;;;;;;6254540;28;20120;-64
2022/01/06 07:24:39;;;;;;;1.85;1.63;;;;;;;;;;6253728;28;20068;-64
2022/01/06 07:27:40;;;;;;;3.40;1.90;;;;;;;;;;6256733;28;20072;-65
2022/01/06 07:30:42;;;;;;;2.47;2.00;;;;;;;;;;6249581;28;20128;-65
2022/01/06 07:33:44;;;;;;;2.95;1.77;;;;;;;;;;6256053;28;20124;-64
2022/01/06 07:36:45;;;;;;;2.10;1.58;;;;;;;;;;6253761;28;20178;-64
2022/01/06 07:39:48;;;;;;;3.13;1.73;;;;;;;;;;6254363;28;20633;-64
2022/01/06 07:42:52;;;;;;;2.20;1.67;;;;;;;;;;6252025;28;20600;-64
2022/01/06 07:45:53;;;;;;;3.95;1.88;;;;;;;;;;6250626;28;20516;-64
2022/01/06 07:48:57;;;;;;;3.00;1.67;;;;;;;;;;6254293;28;20446;-64
2022/01/06 07:51:59;;;;;;;;;;;;;;;;;;6247325;28;20509;-64
2022/01/06 07:55:02;;;;;;;2.95;1.85;;;;;;;;;;6257802;28;20364;-63
2022/01/06 07:58:04;;;;;;;3.00;2.10;;;;;;;;;;6250538;28;20523;-64
2022/01/06 08:01:06;;;;;;;3.97;1.88;;;;;;;;;;6252713;28;20517;-64
2022/01/06 08:04:08;;;;;;;3.25;2.13;;;;;;;;;;6256361;28;20049;-64
2022/01/06 08:07:09;;;;;;;2.72;1.90;;;;;;;;;;6249496;28;20132;-63
2022/01/06 08:10:12;;;;;;;2.50;1.67;;;;;;;;;;6248602;28;20192;-64
2022/01/06 08:13:14;;;;;;;2.92;1.65;;;;;;;;;;6252377;28;20166;-63
2022/01/06 08:16:16;;;;;;;2.33;1.77;;;;;;;;;;6233099;28;20124;-64
2022/01/06 08:19:18;;;;;;;3.13;1.65;;;;;;;;;;6255149;28;20135;-64
2022/01/06 08:22:20;;;;;;;2.97;1.65;;;;;;;;;;6255476;28;20056;-64
2022/01/06 08:25:23;;;;;;;1.80;1.42;;;;;;;;;;6257216;28;20176;-64
2022/01/06 08:28:24;;;;;;;2.40;1.40;;;;;;;;;;6266119;28;20171;-64
2022/01/06 08:31:26;;;;;;;2.33;1.63;;;;;;;;;;6259826;28;20085;-64
2022/01/06 08:34:28;;;;;;;3.03;1.88;;;;;;;;;;6259602;28;20179;-64
2022/01/06 08:37:29;;;;;;;2.42;1.50;;;;;;;;;;6256921;28;20135;-63
2022/01/06 08:40:33;;;;;;;2.58;1.50;;;;;;;;;;6255175;28;20045;-64
2022/01/06 08:43:34;;;;;;;1.75;1.30;;;;;;;;;;6262678;28;20126;-64
2022/01/06 08:46:36;;;;;;;2.28;1.73;;;;;;;;;;6255503;28;20068;-64
2022/01/06 08:49:38;;;;;;;2.35;1.08;;;;;;;;;;6264763;28;20180;-64
2022/01/06 08:52:40;;;;;;;3.08;1.10;;;;;;;;;;6261803;28;20080;-64
2022/01/06 08:55:46;;;;;;;2.17;1.50;;;;;;;;;;6264052;28;20247;-63
2022/01/06 08:58:48;;;;;;;2.38;1.23;;;;;;;;;;6253455;28;20489;-65
2022/01/06 09:01:49;;;;;;;1.92;1.00;;;;;;;;;;6256184;28;20129;-66
2022/01/06 09:04:51;;;;;;;1.10;0.90;;;;;;;;;;6253443;28;20138;-64
2022/01/06 09:07:53;;;;;;;1.10;0.95;;;;;;;;;;6259692;28;20049;-64
2022/01/06 09:10:56;;;;;;;1.33;0.82;;;;;;;;;;6262429;28;20134;-64
2022/01/06 09:13:57;;;;;;;1.05;0.95;;;;;;;;;;6258659;28;20126;-64
2022/01/06 09:16:59;;;;;;;3.92;1.50;;;;;;;;;;6252567;28;20078;-64
2022/01/06 09:20:00;;;;;;;1.92;1.00;;;;;;;;;;6264740;28;20049;-64
2022/01/06 09:23:02;;;;;;;2.63;1.05;;;;;;;;;;6262709;28;20103;-64
2022/01/06 09:26:05;;;;;;;1.00;0.90;;;;;;;;;;6257378;28;20045;-64
2022/01/06 09:29:09;;;;;;;1.23;0.75;;;;;;;;;;6259519;28;20079;-64
2022/01/06 09:32:10;;;;;;;1.95;0.95;;;;;;;;;;6255477;28;20128;-64
2022/01/06 09:35:12;;;;;;;1.70;1.00;;;;;;;;;;6258763;28;20192;-64
2022/01/06 09:38:13;;;;;;;1.33;0.93;;;;;;;;;;6258361;28;20559;-64
2022/01/06 09:41:17;;;;;;;2.00;0.90;;;;;;;;;;6255976;28;20125;-64
2022/01/06 09:44:19;;;;;;;1.13;0.88;;;;;;;;;;6252533;28;20047;-64
2022/01/06 09:47:24;;;;;;;1.00;0.90;;;;;;;;;;6261562;28;20135;-64
2022/01/06 09:50:25;;;;;;;0.75;0.75;;;;;;;;;;6255268;28;20037;-64
2022/01/06 09:53:27;;;;;;;0.80;0.70;;;;;;;;;;6256834;28;20175;-64
2022/01/06 09:56:30;;;;;;;2.30;0.90;;;;;;;;;;6255497;28;20046;-65
2022/01/06 09:59:32;;;;;;;1.13;0.70;;;;;;;;;;6253798;28;20053;-65
2022/01/06 10:02:34;;;;;;;1.05;0.80;;;;;;;;;;6257646;28;20049;-64
2022/01/06 10:05:39;;;;;;;1.35;1.00;;;;;;;;;;6254277;28;20128;-65
2022/01/06 10:08:42;;;;;;;1.13;0.77;;;;;;;;;;6259861;28;20121;-65
2022/01/06 10:11:45;;;;;;;1.45;0.88;;;;;;;;;;6254376;28;20126;-62
2022/01/06 10:14:50;;;;;;;2.25;1.00;;;;;;;;;;6255322;28;20072;-65
2022/01/06 10:17:51;;;;;;;1.17;0.98;;;;;;;;;;6261140;28;20421;-63
2022/01/06 10:20:53;;;;;;;1.55;1.00;;;;;;;;;;6230711;28;20181;-65
2022/01/06 10:24:07;;;;;;;1.25;1.00;;;;;;;;;;6245424;28;20558;-63
2022/01/06 10:27:10;;;;;;;1.40;1.10;;;;;;;;;;6224138;28;20510;-63
2022/01/06 10:30:13;;;;;;;1.73;1.00;;;;;;;;;;6232362;28;23178;-65
2022/01/06 10:33:16;;;;;;;1.40;0.93;;;;;;;;;;6231434;28;20082;-62
2022/01/06 10:36:18;;;;;;;1.58;1.10;;;;;;;;;;6233749;28;20552;-65
2022/01/06 10:39:19;;;;;;;1.33;1.10;;;;;;;;;;6229379;28;20118;-64
2022/01/06 10:42:24;;;;;;;3.25;1.60;;;;;;;;;;6231016;28;20188;-64
2022/01/06 10:45:30;;;;;;;1.35;1.20;;;;;;;;;;6232556;28;20319;-64
2022/01/06 10:48:31;;;;;;;3.45;1.67;;;;;;;;;;6228571;28;20064;-64
2022/01/06 10:51:38;;;;;;;1.40;1.25;;;;;;;;;;6230242;28;20127;-63
2022/01/06 10:54:39;;;;;;;2.75;1.70;;;;;;;;;;6227609;28;20119;-65
2022/01/06 10:57:58;;;;;;;2.38;1.50;;;;;;;;;;6231043;28;20151;-63
2022/01/06 11:01:02;;;;;;;1.85;1.50;;;;;;;;;;6234991;28;20154;-64
2022/01/06 11:04:04;;;;;;;2.78;1.52;;;;;;;;;;6234927;28;20053;-65
2022/01/06 11:07:06;;;;;;;1.63;1.30;;;;;;;;;;6226679;28;20123;-64
2022/01/06 11:10:15;;;;;;;2.65;1.55;;;;;;;;;;6230823;28;20494;-65
2022/01/06 11:13:18;;;;;;;2.17;1.48;;;;;;;;;;6226914;28;20077;-64
2022/01/06 11:16:20;;;;;;;3.17;1.70;;;;;;;;;;6228368;28;20508;-64
2022/01/06 11:19:23;;;;;;;2.85;1.75;;;;;;;;;;6229691;28;20251;-65
2022/01/06 11:22:26;;;;;;;2.20;1.60;;;;;;;;;;6224495;28;20601;-65
2022/01/06 11:25:33;;;;;;;2.17;1.52;;;;;;;;;;6227534;28;20070;-65
2022/01/06 11:28:36;;;;;;;2.60;2.10;;;;;;;;;;6223886;28;20551;-63
2022/01/06 11:31:40;;;;;;;2.45;1.80;;;;;;;;;;6227367;28;20649;-65
2022/01/06 11:34:42;;;;;;;2.38;2.00;;;;;;;;;;6229167;28;20049;-65
2022/01/06 11:37:45;;;;;;;2.55;2.17;;;;;;;;;;6226581;28;20516;-65
2022/01/06 11:40:47;;;;;;;3.90;2.50;;;;;;;;;;6230161;28;20557;-65
2022/01/06 11:43:50;;;;;;;3.47;2.40;;;;;;;;;;6229443;28;20068;-64
2022/01/06 11:46:55;;;;;;;3.30;2.50;;;;;;;;;;6244865;28;20069;-64
2022/01/06 11:50:11;;;;;;;4.75;2.65;;;;;;;;;;6230462;28;20076;-65
2022/01/06 11:53:13;;;;;;;4.13;2.70;;;;;;;;;;6228455;28;20131;-65
2022/01/06 11:56:15;;;;;;;2.90;2.53;;;;;;;;;;6230855;28;20072;-64
2022/01/06 11:59:29;;;;;;;5.03;2.42;;;;;;;;;;6230868;28;20100;-64
2022/01/06 12:02:30;;;;;;;3.65;2.78;;;;;;;;;;6231199;28;20056;-65
2022/01/06 12:05:42;;;;;;;3.65;2.53;;;;;;;;;;6239566;28;20540;-65
2022/01/06 12:08:44;;;;;;;3.50;2.80;;;;;;;;;;6235929;28;20099;-65
2022/01/06 12:11:46;;;;;;;4.30;2.50;;;;;;;;;;6235103;28;20054;-64
2022/01/06 12:14:49;;;;;;;3.00;2.40;;;;;;;;;;6238410;28;20088;-65
2022/01/06 12:17:52;;;;;;;3.88;3.00;;;;;;;;;;6234510;28;20049;-64
2022/01/06 12:20:55;;;;;;;3.17;2.47;;;;;;;;;;6235447;28;20042;-65
2022/01/06 12:24:01;;;;;;;2.97;2.50;;;;;;;;;;6249091;28;20475;-65
2022/01/06 12:27:03;;;;;;;3.60;2.65;;;;;;;;;;6230135;28;20046;-64
2022/01/06 12:30:08;;;;;;;3.15;2.50;;;;;;;;;;6233510;28;20073;-64
2022/01/06 12:33:09;;;;;;;3.50;2.90;;;;;;;;;;6238298;28;20049;-64
2022/01/06 12:36:11;;;;;;;3.47;3.17;;;;;;;;;;6235106;28;20057;-64
2022/01/06 12:39:15;;;;;;;4.72;3.33;;;;;;;;;;6238376;28;20147;-64
2022/01/06 12:42:16;;;;;;;3.55;2.80;;;;;;;;;;6240943;28;20038;-64
2022/01/06 12:45:19;;;;;;;3.45;2.70;;;;;;;;;;6233178;28;20053;-64
2022/01/06 12:48:28;;;;;;;5.65;2.90;;;;;;;;;;6240787;28;20114;-65
2022/01/06 12:51:31;;;;;;;4.22;3.03;;;;;;;;;;6247482;28;20191;-65
2022/01/06 12:54:35;;;;;;;3.45;2.47;;;;;;;;;;6233194;28;20068;-65
2022/01/06 12:57:38;;;;;;;4.70;3.15;;;;;;;;;;6234773;28;20183;-65
2022/01/06 13:00:41;;;;;;;;;;;;;;;;;;6238630;28;20175;-64
2022/01/06 13:03:44;;;;;;;3.20;2.63;;;;;;;;;;6243679;28;20059;-65
2022/01/06 13:06:46;;;;;;;4.57;3.37;;;;;;;;;;6251037;28;20080;-65
2022/01/06 13:09:48;;;;;;;4.32;2.70;;;;;;;;;;6253414;28;20057;-64
2022/01/06 13:12:50;;;;;;;3.25;2.70;;;;;;;;;;6231720;28;20064;-64
2022/01/06 13:15:53;;;;;;;4.55;2.75;;;;;;;;;;6233873;28;20049;-64
2022/01/06 13:19:00;;;;;;;3.73;2.90;;;;;;;;;;6233483;28;20218;-64
2022/01/06 13:22:04;;;;;;;4.45;3.35;;;;;;;;;;6252260;28;20486;-64
2022/01/06 13:25:10;;;;;;;3.65;2.92;;;;;;;;;;6231993;28;20041;-64
2022/01/06 13:28:14;;;;;;;4.28;3.03;;;;;;;;;;6233996;28;20413;-64
2022/01/06 13:31:20;;;;;;;3.72;2.85;;;;;;;;;;6238384;28;20179;-64
2022/01/06 13:34:22;;;;;;;4.53;3.30;;;;;;;;;;6240491;28;20176;-64
2022/01/06 13:37:28;;;;;;;4.00;3.17;;;;;;;;;;6238714;28;20057;-64
2022/01/06 13:40:30;;;;;;;4.88;2.70;;;;;;;;;;6236116;28;20132;-64
2022/01/06 13:43:35;;;;;;;3.72;3.00;;;;;;;;;;6235097;28;20580;-64
2022/01/06 13:46:53;;;;;;;4.00;3.10;;;;;;;;;;6254071;28;20048;-64
2022/01/06 13:53:23;;;;;;;4.00;3.17;;;;;;;;;;6240522;28;20041;-63
2022/01/06 13:56:30;;;;;;;4.22;3.25;;;;;;;;;;6238894;28;20038;-66
2022/01/06 13:59:31;;;;;;;4.88;2.58;;;;;;;;;;6236042;28;20111;-66
2022/01/06 14:02:34;;;;;;;37.22;24.27;;;;;;;;;;6236197;28;20115;-67
2022/01/06 14:05:36;;;;;;;58.22;35.25;;;;;;;;;;6235736;28;20049;-64
2022/01/06 14:08:38;;;;;;;26.90;16.58;;;;;;;;;;6231162;28;20136;-66
2022/01/06 14:11:40;;;;;;;14.82;9.85;;;;;;;;;;6232654;28;20073;-66
2022/01/06 14:14:41;;;;;;;29.70;14.93;;;;;;;;;;6239446;28;20041;-66
2022/01/06 14:17:44;;;;;;;19.80;11.70;;;;;;;;;;6238129;28;20049;-66
2022/01/06 14:20:46;;;;;;;41.03;22.40;;;;;;;;;;6231641;28;20136;-66
2022/01/06 14:23:48;;;;;;;11.77;7.63;;;;;;;;;;6227184;28;20128;-66
2022/01/06 14:26:49;;;;;;;5.90;4.18;;;;;;;;;;6235174;28;20076;-66
2022/01/06 14:29:51;;;;;;;7.47;5.15;;;;;;;;;;6230672;28;20128;-66
2022/01/06 14:32:54;;;;;;;5.47;3.67;;;;;;;;;;6231795;28;20224;-66
2022/01/06 14:35:57;;;;;;;4.28;3.17;;;;;;;;;;6231044;28;20354;-66
2022/01/06 14:38:58;;;;;;;5.13;3.70;;;;;;;;;;6229864;28;20056;-65
2022/01/06 14:42:00;;;;;;;4.85;3.55;;;;;;;;;;6233055;28;20132;-66
2022/01/06 14:45:02;;;;;;;5.03;3.42;;;;;;;;;;6234221;28;20517;-66
2022/01/06 14:48:05;;;;;;;5.65;3.90;;;;;;;;;;6234151;28;20184;-66
2022/01/06 14:51:06;;;;;;;4.90;3.15;;;;;;;;;;6229812;28;20046;-66
2022/01/06 14:54:08;;;;;;;4.40;3.30;;;;;;;;;;6232385;28;20196;-66
2022/01/06 14:57:10;;;;;;;4.78;3.78;;;;;;;;;;6230647;28;20125;-66
2022/01/06 15:00:14;;;;;;;4.97;3.75;;;;;;;;;;6231730;28;20057;-66
2022/01/06 15:03:20;;;;;;;5.30;3.38;;;;;;;;;;6229833;28;20065;-66
2022/01/06 15:06:21;;;;;;;5.32;3.75;;;;;;;;;;6227141;28;20516;-66
2022/01/06 15:09:23;;;;;;;4.25;3.47;;;;;;;;;;6230887;28;20100;-66
2022/01/06 15:12:25;;;;;;;5.10;3.65;;;;;;;;;;6230919;28;20076;-66
2022/01/06 15:15:26;;;;;;;5.90;3.97;;;;;;;;;;6231685;28;20143;-66
2022/01/06 15:18:29;;;;;;;6.43;4.00;;;;;;;;;;6227715;28;20042;-67
2022/01/06 15:21:31;;;;;;;5.13;3.80;;;;;;;;;;6235078;28;20529;-67
2022/01/06 15:24:32;;;;;;;5.68;3.70;;;;;;;;;;6235322;28;20135;-66
2022/01/06 15:27:34;;;;;;;5.95;3.83;;;;;;;;;;6234761;28;20072;-66
2022/01/06 15:30:37;;;;;;;5.40;3.85;;;;;;;;;;6237753;28;20528;-67
2022/01/06 15:33:39;;;;;;;7.53;3.85;;;;;;;;;;6234448;28;20513;-66
2022/01/06 15:36:41;;;;;;;5.80;3.90;;;;;;;;;;6235969;28;20060;-66
2022/01/06 15:39:43;;;;;;;5.40;3.65;;;;;;;;;;6231846;28;20704;-66
2022/01/06 15:42:44;;;;;;;6.82;4.00;;;;;;;;;;6237695;28;20247;-66
2022/01/06 15:45:46;;;;;;;5.07;3.55;;;;;;;;;;6239298;28;20065;-66
2022/01/06 15:48:49;;;;;;;5.78;3.70;;;;;;;;;;6243309;28;20382;-66
2022/01/06 15:51:51;;;;;;;4.82;3.35;;;;;;;;;;6240629;28;20053;-66
2022/01/06 15:54:52;;;;;;;5.47;3.40;;;;;;;;;;6235994;28;20151;-66
2022/01/06 15:57:54;;;;;;;5.10;3.80;;;;;;;;;;6238196;28;20084;-67
2022/01/06 16:07:52;;;;;;;5.40;3.75;;;;;;;;;;6187490;28;20170;-66
2022/01/06 16:11:00;;;;;;;5.20;3.78;;;;;;;;;;6183662;28;20039;-66
2022/01/06 16:14:01;;;;;;;5.35;3.75;;;;;;;;;;6244689;28;20045;-66
2022/01/06 16:17:04;;;;;;;5.53;4.25;;;;;;;;;;6227547;28;20572;-67
2022/01/06 16:20:08;;;;;;;5.70;4.03;;;;;;;;;;6232694;28;20054;-66
2022/01/06 16:23:10;;;;;;;4.70;3.35;;;;;;;;;;6235502;28;20214;-65
2022/01/06 16:26:12;;;;;;;5.78;3.97;;;;;;;;;;6240839;28;20136;-66
2022/01/06 16:29:14;;;;;;;6.15;4.43;;;;;;;;;;6243384;28;20066;-66
2022/01/06 16:32:21;;;;;;;7.22;4.32;;;;;;;;;;6227732;28;20049;-66
2022/01/06 16:35:24;;;;;;;5.72;3.65;;;;;;;;;;6227387;28;20085;-66
2022/01/06 16:38:26;;;;;;;6.93;4.65;;;;;;;;;;6229431;28;20068;-66
2022/01/06 16:41:30;;;;;;;6.35;3.67;;;;;;;;;;6231541;28;20418;-66
2022/01/06 16:44:32;;;;;;;6.60;4.53;;;;;;;;;;6238126;28;20084;-66
2022/01/06 16:47:33;;;;;;;5.90;4.50;;;;;;;;;;6242894;28;20471;-66
2022/01/06 16:50:37;;;;;;;5.88;3.83;;;;;;;;;;6232823;28;20045;-66
2022/01/06 16:53:38;;;;;;;8.60;4.65;;;;;;;;;;6237824;28;20133;-66
2022/01/06 16:56:40;;;;;;;7.10;4.28;;;;;;;;;;6235803;28;20596;-66
2022/01/06 16:59:42;;;;;;;5.43;4.03;;;;;;;;;;6234665;28;20136;-67
2022/01/06 17:02:43;;;;;;;49.63;20.73;;;;;;;;;;6236575;28;20100;-67
2022/01/06 17:05:48;;;;;;;19.50;10.10;;;;;;;;;;6240137;28;20176;-67
2022/01/06 17:08:49;;;;;;;18.85;9.43;;;;;;;;;;6242109;28;20041;-67
2022/01/06 17:11:51;;;;;;;7.97;5.20;;;;;;;;;;6244136;28;20129;-67
2022/01/06 17:14:52;;;;;;;11.70;6.65;;;;;;;;;;6233260;28;20129;-67
2022/01/06 17:17:54;;;;;;;143.02;69.90;;;;;;;;;;6243086;28;20566;-67
2022/01/06 17:20:57;;;;;;;18.77;10.95;;;;;;;;;;6233260;28;20330;-66
2022/01/06 17:24:00;;;;;;;18.50;9.52;;;;;;;;;;6233588;28;20545;-66
2022/01/06 17:27:03;;;;;;;45.33;21.08;;;;;;;;;;6233984;28;20046;-66
2022/01/06 17:30:06;;;;;;;32.88;14.70;;;;;;;;;;6231199;28;20053;-65
2022/01/06 17:33:09;;;;;;;10.70;5.43;;;;;;;;;;6236902;28;20050;-66
2022/01/06 17:36:12;;;;;;;8.35;4.63;;;;;;;;;;6232393;28;20056;-65
2022/01/06 17:39:14;;;;;;;9.20;4.43;;;;;;;;;;6243142;28;20512;-66
2022/01/06 17:42:16;;;;;;;7.75;4.60;;;;;;;;;;6245986;28;21032;-66
2022/01/06 17:45:17;;;;;;;7.40;4.38;;;;;;;;;;6254555;28;20382;-66
2022/01/06 17:48:19;;;;;;;8.13;4.40;;;;;;;;;;6248246;28;20068;-66
2022/01/06 17:51:22;;;;;;;6.65;4.45;;;;;;;;;;6249899;28;20598;-66
2022/01/06 17:54:24;;;;;;;7.05;4.43;;;;;;;;;;6241397;28;20038;-66
2022/01/06 17:57:26;;;;;;;6.47;4.20;;;;;;;;;;6246176;28;20585;-66
2022/01/06 18:00:27;;;;;;;6.85;4.32;;;;;;;;;;6244953;28;20061;-66
2022/01/06 18:03:29;;;;;;;7.65;4.05;;;;;;;;;;6243328;28;20144;-66
2022/01/06 18:06:37;;;;;;;7.13;4.30;;;;;;;;;;6242893;28;20054;-66
2022/01/06 18:12:58;;;;;;;6.50;4.15;;;;;;;;;;6238731;28;20053;-66
2022/01/06 18:15:59;;;;;;;6.55;4.65;;;;;;;;;;6255518;28;20400;-66
2022/01/06 18:19:01;;;;;;;5.68;4.13;;;;;;;;;;6247075;28;20091;-66
2022/01/06 18:22:04;;;;;;;6.75;4.57;;;;;;;;;;6244932;28;20563;-66
2022/01/06 18:25:06;;;;;;;5.97;3.92;;;;;;;;;;6241001;28;20188;-66
2022/01/06 18:28:08;;;;;;;5.80;4.10;;;;;;;;;;6247946;28;20124;-66
2022/01/06 18:31:10;;;;;;;7.00;4.43;;;;;;;;;;6241428;28;20132;-66
2022/01/06 18:34:12;;;;;;;6.05;4.28;;;;;;;;;;6243802;28;20168;-66